createdAt,value
2022-12-03T00:01:25.900Z,69.39
2022-12-03T00:04:28.955Z,69.12
2022-12-03T00:07:31.934Z,69.38
2022-12-03T00:10:34.932Z,69.20
2022-12-03T00:13:37.922Z,69.11
2022-12-03T00:16:41.059Z,69.10
2022-12-03T00:19:44.000Z,69.24
2022-12-03T00:22:48.880Z,69.35
2022-12-03T00:25:52.061Z,69.37
2022-12-03T00:28:55.023Z,69.38
2022-12-03T00:31:58.043Z,69.28
2022-12-03T00:35:00.974Z,69.38
2022-12-03T00:38:03.924Z,69.46
2022-12-03T00:41:06.994Z,69.45
2022-12-03T00:44:10.398Z,69.42
2022-12-03T00:47:13.495Z,69.57
2022-12-03T00:50:16.721Z,69.65
2022-12-03T00:53:19.890Z,69.66
2022-12-03T00:56:22.922Z,69.77
2022-12-03T00:59:26.106Z,69.60
2022-12-03T01:02:29.031Z,69.81
2022-12-03T01:05:32.070Z,69.59
2022-12-03T01:08:35.131Z,69.75
2022-12-03T01:11:38.025Z,69.81
2022-12-03T01:14:41.025Z,69.84
2022-12-03T01:17:43.979Z,69.83
2022-12-03T01:20:47.091Z,69.93
2022-12-03T01:23:49.975Z,69.81
2022-12-03T01:26:53.029Z,69.88
2022-12-03T01:29:55.921Z,69.99
2022-12-03T01:32:58.866Z,69.92
2022-12-03T01:36:01.815Z,69.89
2022-12-03T01:39:04.978Z,70.14
2022-12-03T01:42:11.891Z,69.84
2022-12-03T01:45:22.270Z,70.06
2022-12-03T01:48:25.344Z,70.00
2022-12-03T01:51:29.985Z,69.93
2022-12-03T01:54:40.241Z,70.04
2022-12-03T01:57:47.605Z,70.01
2022-12-03T02:00:50.849Z,70.07
2022-12-03T02:03:53.776Z,70.02
2022-12-03T02:06:56.772Z,70.19
2022-12-03T02:10:02.520Z,69.98
2022-12-03T02:13:10.335Z,70.02
2022-12-03T02:16:13.623Z,70.05
2022-12-03T02:19:27.858Z,70.23
2022-12-03T02:22:36.260Z,70.10
2022-12-03T02:25:39.493Z,70.30
2022-12-03T02:28:42.656Z,70.30
2022-12-03T02:31:45.699Z,70.23
2022-12-03T02:34:49.565Z,70.27
2022-12-03T02:37:58.191Z,70.25
2022-12-03T02:41:06.233Z,70.34
2022-12-03T02:44:09.865Z,70.23
2022-12-03T02:47:13.190Z,70.44
2022-12-03T02:50:22.118Z,70.37
2022-12-03T02:53:28.944Z,70.30
2022-12-03T02:56:33.144Z,70.23
2022-12-03T02:59:36.123Z,70.35
2022-12-03T03:02:40.714Z,70.47
2022-12-03T03:05:45.083Z,70.42
2022-12-03T03:08:48.261Z,70.54
2022-12-03T03:11:51.197Z,70.53
2022-12-03T03:14:54.579Z,70.76
2022-12-03T03:17:57.808Z,70.51
2022-12-03T03:21:00.932Z,70.60
2022-12-03T03:24:04.970Z,70.44
2022-12-03T03:27:08.041Z,70.42
2022-12-03T03:30:12.333Z,70.51
2022-12-03T03:33:16.547Z,70.68
2022-12-03T03:36:20.372Z,70.66
2022-12-03T03:39:23.486Z,70.49
2022-12-03T03:42:26.574Z,70.62
2022-12-03T03:45:29.944Z,70.58
2022-12-03T03:48:34.725Z,70.73
2022-12-03T03:51:38.668Z,70.68
2022-12-03T03:54:41.825Z,70.79
2022-12-03T03:57:44.806Z,70.72
2022-12-03T04:00:48.174Z,70.82
2022-12-03T04:03:53.732Z,70.73
2022-12-03T04:06:56.758Z,70.80
2022-12-03T04:10:20.656Z,70.80
2022-12-03T04:13:23.656Z,70.74
2022-12-03T04:16:26.815Z,71.02
2022-12-03T04:19:29.817Z,70.82
2022-12-03T04:22:41.934Z,71.01
2022-12-03T04:26:23.275Z,71.03
2022-12-03T04:29:26.310Z,71.01
2022-12-03T04:32:47.919Z,70.96
2022-12-03T04:35:51.042Z,70.99
2022-12-03T04:38:53.972Z,70.88
2022-12-03T04:41:57.696Z,70.91
2022-12-03T04:45:00.663Z,71.07
2022-12-03T04:48:03.800Z,71.02
2022-12-03T04:51:06.707Z,71.04
2022-12-03T04:54:09.764Z,71.03
2022-12-03T04:57:13.258Z,71.00
2022-12-03T05:00:16.561Z,71.01
2022-12-03T05:03:19.525Z,71.17
2022-12-03T05:06:22.787Z,71.19
2022-12-03T05:09:25.842Z,71.15
2022-12-03T05:12:28.830Z,71.16
2022-12-03T05:15:31.756Z,71.06
2022-12-03T05:18:34.776Z,71.05
2022-12-03T05:21:37.724Z,71.21
2022-12-03T05:24:40.755Z,71.21
2022-12-03T05:27:43.766Z,71.10
2022-12-03T05:30:46.795Z,71.17
2022-12-03T05:33:49.864Z,71.29
2022-12-03T05:36:52.862Z,71.31
2022-12-03T05:39:55.840Z,71.27
2022-12-03T05:43:01.161Z,71.13
2022-12-03T05:46:04.199Z,71.24
2022-12-03T05:49:07.214Z,71.24
2022-12-03T05:52:10.198Z,71.18
2022-12-03T05:55:13.839Z,71.33
2022-12-03T05:58:16.795Z,71.27
2022-12-03T06:01:19.823Z,71.24
2022-12-03T06:04:22.816Z,71.36
2022-12-03T06:07:26.658Z,71.29
2022-12-03T06:10:29.783Z,71.28
2022-12-03T06:13:32.843Z,71.38
2022-12-03T06:16:38.827Z,71.48
2022-12-03T06:19:41.837Z,71.45
2022-12-03T06:22:45.475Z,71.45
2022-12-03T06:25:48.497Z,71.46
2022-12-03T06:28:51.422Z,71.43
2022-12-03T06:31:54.389Z,71.51
2022-12-03T06:34:57.390Z,71.49
2022-12-03T06:38:00.463Z,71.60
2022-12-03T06:41:05.115Z,71.49
2022-12-03T06:44:08.055Z,71.37
2022-12-03T06:47:10.997Z,71.42
2022-12-03T06:50:14.146Z,71.59
2022-12-03T06:53:17.208Z,71.54
2022-12-03T06:56:22.449Z,71.72
2022-12-03T06:59:26.133Z,71.57
2022-12-03T07:02:29.187Z,71.58
2022-12-03T07:05:32.251Z,71.56
2022-12-03T07:08:35.507Z,71.62
2022-12-03T07:11:41.435Z,71.44
2022-12-03T07:14:44.354Z,71.48
2022-12-03T07:17:47.285Z,71.47
2022-12-03T07:20:51.599Z,71.46
2022-12-03T07:23:59.525Z,71.56
2022-12-03T07:27:02.865Z,71.58
2022-12-03T07:30:18.740Z,71.56
2022-12-03T07:33:21.831Z,71.62
2022-12-03T07:36:24.922Z,71.51
2022-12-03T07:39:28.170Z,71.60
2022-12-03T07:42:31.165Z,71.55
2022-12-03T07:45:34.070Z,71.53
2022-12-03T07:48:37.007Z,71.56
2022-12-03T07:51:40.345Z,71.61
2022-12-03T07:54:43.246Z,71.52
2022-12-03T07:57:46.338Z,71.52
2022-12-03T08:00:49.353Z,71.66
2022-12-03T08:03:52.631Z,71.52
2022-12-03T08:06:55.706Z,71.60
2022-12-03T08:09:58.716Z,71.61
2022-12-03T08:13:02.964Z,71.47
2022-12-03T08:16:15.167Z,71.56
2022-12-03T08:19:18.547Z,71.68
2022-12-03T08:22:22.408Z,71.63
2022-12-03T08:25:28.577Z,71.72
2022-12-03T08:28:32.061Z,71.66
2022-12-03T08:31:35.077Z,71.71
2022-12-03T08:34:43.688Z,71.53
2022-12-03T08:37:46.749Z,71.65
2022-12-03T08:40:52.104Z,71.58
2022-12-03T08:43:55.257Z,71.64
2022-12-03T08:47:16.400Z,71.66
2022-12-03T08:50:43.072Z,71.53
2022-12-03T08:53:48.487Z,71.73
2022-12-03T08:56:51.777Z,71.64
2022-12-03T08:59:59.978Z,71.54
2022-12-03T09:03:03.189Z,71.45
2022-12-03T09:06:06.491Z,71.43
2022-12-03T09:09:09.562Z,71.38
2022-12-03T09:12:12.497Z,71.42
2022-12-03T09:15:16.515Z,71.60
2022-12-03T09:18:19.520Z,71.38
2022-12-03T09:21:22.560Z,71.47
2022-12-03T09:24:25.556Z,71.63
2022-12-03T09:27:28.685Z,71.53
2022-12-03T09:30:31.943Z,71.39
2022-12-03T09:33:35.324Z,71.43
2022-12-03T09:36:38.311Z,71.54
2022-12-03T09:39:41.279Z,71.60
2022-12-03T09:42:44.757Z,71.64
2022-12-03T09:45:49.215Z,71.69
2022-12-03T09:48:52.560Z,71.78
2022-12-03T09:51:58.668Z,71.58
2022-12-03T09:55:08.034Z,71.71
2022-12-03T09:58:13.814Z,71.96
2022-12-03T10:01:17.895Z,71.94
2022-12-03T10:04:21.407Z,71.87
2022-12-03T10:07:25.955Z,71.71
2022-12-03T10:10:29.143Z,71.76
2022-12-03T10:13:34.567Z,71.70
2022-12-03T10:16:40.413Z,71.68
2022-12-03T10:19:44.746Z,71.95
2022-12-03T10:22:49.006Z,71.81
2022-12-03T10:26:03.026Z,71.78
2022-12-03T10:29:13.346Z,71.82
2022-12-03T10:32:16.339Z,71.79
2022-12-03T10:35:36.362Z,71.94
2022-12-03T10:38:39.315Z,71.93
2022-12-03T10:41:44.451Z,72.02
2022-12-03T10:44:47.462Z,72.05
2022-12-03T10:48:27.456Z,72.19
2022-12-03T10:51:30.980Z,72.01
2022-12-03T10:54:35.524Z,71.99
2022-12-03T10:57:43.711Z,72.16
2022-12-03T11:00:50.380Z,72.18
2022-12-03T11:04:04.745Z,72.15
2022-12-03T11:07:20.161Z,72.27
2022-12-03T11:10:23.838Z,72.35
2022-12-03T11:13:45.362Z,72.17
2022-12-03T11:16:51.455Z,72.14
2022-12-03T11:19:54.735Z,72.08
2022-12-03T11:22:58.964Z,72.18
2022-12-03T11:26:03.129Z,72.18
2022-12-03T11:29:14.087Z,72.26
2022-12-03T11:32:39.222Z,72.40
2022-12-03T11:36:03.878Z,72.42
2022-12-03T11:39:09.564Z,72.38
2022-12-03T11:42:27.632Z,72.36
2022-12-03T11:45:36.805Z,72.50
2022-12-03T11:48:47.424Z,72.48
2022-12-03T11:51:51.142Z,72.60
2022-12-03T11:54:59.703Z,72.55
2022-12-03T11:58:29.672Z,72.63
2022-12-03T12:01:38.527Z,72.67
2022-12-03T12:04:46.780Z,72.57
2022-12-03T12:07:50.919Z,72.53
2022-12-03T12:10:54.279Z,72.57
2022-12-03T12:13:58.584Z,72.58
2022-12-03T12:17:03.724Z,72.64
2022-12-03T12:20:30.399Z,72.70
2022-12-03T12:23:33.465Z,72.65
2022-12-03T12:26:36.366Z,72.63
2022-12-03T12:29:42.331Z,72.66
2022-12-03T12:32:48.157Z,72.65
2022-12-03T12:35:51.338Z,72.72
2022-12-03T12:38:54.315Z,72.69
2022-12-03T12:41:57.963Z,72.73
2022-12-03T12:45:16.360Z,72.76
2022-12-03T12:48:34.296Z,72.72
2022-12-03T12:51:49.390Z,72.79
2022-12-03T12:54:52.402Z,72.65
2022-12-03T12:58:00.006Z,72.77
2022-12-03T13:01:21.455Z,72.72
2022-12-03T13:04:24.970Z,72.82
2022-12-03T13:07:28.249Z,72.72
2022-12-03T13:10:41.967Z,72.83
2022-12-03T13:13:44.937Z,72.86
2022-12-03T13:16:49.843Z,72.90
2022-12-03T13:20:03.684Z,72.91
2022-12-03T13:23:27.399Z,72.93
2022-12-03T13:26:39.790Z,73.01
2022-12-03T13:29:44.118Z,73.20
2022-12-03T13:32:47.035Z,73.10
2022-12-03T13:35:52.582Z,73.17
2022-12-03T13:38:55.539Z,73.29
2022-12-03T13:42:34.598Z,73.23
2022-12-03T13:45:40.463Z,73.31
2022-12-03T13:48:45.293Z,73.35
2022-12-03T13:51:49.303Z,73.33
2022-12-03T13:54:55.155Z,73.34
2022-12-03T13:57:58.239Z,73.22
2022-12-03T14:01:01.284Z,73.27
2022-12-03T14:04:04.525Z,73.27
2022-12-03T14:07:07.485Z,73.26
2022-12-03T14:10:11.748Z,73.24
2022-12-03T14:13:14.792Z,73.18
2022-12-03T14:16:17.810Z,73.33
2022-12-03T14:19:20.774Z,73.49
2022-12-03T14:22:25.378Z,73.49
2022-12-03T14:25:28.434Z,73.53
2022-12-03T14:28:31.437Z,73.52
2022-12-03T14:31:34.401Z,73.50
2022-12-03T14:34:37.418Z,73.48
2022-12-03T14:37:40.315Z,73.53
2022-12-03T14:40:43.260Z,73.55
2022-12-03T14:43:46.207Z,73.58
2022-12-03T14:46:55.378Z,73.67
2022-12-03T14:50:00.003Z,73.56
2022-12-03T14:53:02.954Z,73.71
2022-12-03T14:56:05.853Z,73.61
2022-12-03T14:59:08.842Z,73.81
2022-12-03T15:02:12.473Z,73.98
2022-12-03T15:05:15.688Z,73.92
2022-12-03T15:08:18.766Z,73.97
2022-12-03T15:11:21.770Z,73.99
2022-12-03T15:14:24.676Z,73.90
2022-12-03T15:17:31.652Z,73.98
2022-12-03T15:20:35.716Z,73.96
2022-12-03T15:23:38.819Z,74.00
2022-12-03T15:26:41.720Z,74.06
2022-12-03T15:29:44.636Z,74.09
2022-12-03T15:32:47.695Z,74.03
2022-12-03T15:35:50.586Z,74.15
2022-12-03T15:38:53.701Z,74.31
2022-12-03T15:41:56.617Z,74.22
2022-12-03T15:44:59.514Z,74.22
2022-12-03T15:48:02.904Z,74.20
2022-12-03T15:51:07.045Z,74.23
2022-12-03T15:54:12.263Z,74.21
2022-12-03T15:57:15.710Z,74.45
2022-12-03T16:00:19.046Z,74.53
2022-12-03T16:03:22.013Z,74.48
2022-12-03T16:06:25.172Z,74.52
2022-12-03T16:09:28.156Z,74.46
2022-12-03T16:12:31.187Z,74.44
2022-12-03T16:15:35.239Z,74.44
2022-12-03T16:18:38.314Z,74.57
2022-12-03T16:21:41.231Z,74.53
2022-12-03T16:24:44.206Z,74.58
2022-12-03T16:27:47.534Z,74.69
2022-12-03T16:30:50.487Z,74.58
2022-12-03T16:33:53.471Z,74.72
2022-12-03T16:36:56.417Z,74.61
2022-12-03T16:39:59.446Z,74.65
2022-12-03T16:43:04.437Z,74.71
2022-12-03T16:46:34.164Z,74.62
2022-12-03T16:49:37.147Z,74.65
2022-12-03T16:52:40.112Z,74.77
2022-12-03T16:55:43.108Z,74.83
2022-12-03T16:58:46.134Z,74.78
2022-12-03T17:01:49.063Z,74.84
2022-12-03T17:04:52.057Z,74.75
2022-12-03T17:07:55.093Z,74.81
2022-12-03T17:10:58.151Z,74.74
2022-12-03T17:14:01.142Z,74.89
2022-12-03T17:17:04.222Z,74.81
2022-12-03T17:20:08.278Z,74.89
2022-12-03T17:23:12.535Z,74.87
2022-12-03T17:26:15.520Z,74.86
2022-12-03T17:29:18.650Z,74.90
2022-12-03T17:32:25.378Z,74.78
2022-12-03T17:35:30.793Z,74.76
2022-12-03T17:38:39.035Z,74.87
2022-12-03T17:41:46.410Z,74.92
2022-12-03T17:44:50.065Z,74.90
2022-12-03T17:47:54.155Z,74.89
2022-12-03T17:50:58.140Z,74.82
2022-12-03T17:54:01.066Z,74.81
2022-12-03T17:57:06.349Z,74.94
2022-12-03T18:00:09.844Z,74.76
2022-12-03T18:03:16.589Z,74.84
2022-12-03T18:06:19.539Z,74.86
2022-12-03T18:09:22.694Z,74.83
2022-12-03T18:12:25.745Z,74.77
2022-12-03T18:15:29.076Z,74.95
2022-12-03T18:18:32.569Z,74.70
2022-12-03T18:21:38.947Z,74.87
2022-12-03T18:24:47.596Z,74.82
2022-12-03T18:27:53.345Z,74.82
2022-12-03T18:31:01.667Z,74.88
2022-12-03T18:34:04.611Z,74.73
2022-12-03T18:37:11.896Z,74.79
2022-12-03T18:40:24.659Z,74.81
2022-12-03T18:43:29.757Z,74.88
2022-12-03T18:46:52.889Z,74.83
2022-12-03T18:49:57.826Z,74.82
2022-12-03T18:53:01.412Z,74.83
2022-12-03T18:56:04.612Z,74.83
2022-12-03T18:59:07.834Z,74.77
2022-12-03T19:02:32.469Z,74.87
2022-12-03T19:05:40.333Z,74.86
2022-12-03T19:08:44.216Z,74.85
2022-12-03T19:11:47.271Z,74.80
2022-12-03T19:14:51.138Z,74.85
2022-12-03T19:17:54.162Z,74.88
2022-12-03T19:20:57.418Z,74.93
2022-12-03T19:24:24.305Z,74.73
2022-12-03T19:27:24.375Z,74.75
2022-12-03T19:30:27.335Z,74.85
2022-12-03T19:33:31.244Z,74.81
2022-12-03T19:36:34.551Z,74.83
2022-12-03T19:39:37.538Z,74.93
2022-12-03T19:42:40.562Z,74.90
2022-12-03T19:45:43.527Z,74.94
2022-12-03T19:48:47.000Z,74.88
2022-12-03T19:51:50.462Z,75.00
2022-12-03T19:54:53.503Z,74.95
2022-12-03T19:57:56.626Z,75.00
2022-12-03T20:01:14.764Z,75.04
2022-12-03T20:04:17.741Z,75.07
2022-12-03T20:07:20.844Z,74.99
2022-12-03T20:10:24.017Z,75.16
2022-12-03T20:13:29.822Z,75.15
2022-12-03T20:16:35.789Z,75.09
2022-12-03T20:19:38.934Z,75.13
2022-12-03T20:22:43.352Z,75.08
2022-12-03T20:25:46.311Z,75.17
2022-12-03T20:28:50.098Z,75.24
2022-12-03T20:31:53.096Z,75.12
2022-12-03T20:34:56.142Z,75.29
2022-12-03T20:37:59.073Z,75.33
2022-12-03T20:41:04.129Z,75.33
2022-12-03T20:44:07.914Z,75.36
2022-12-03T20:47:10.885Z,75.33
2022-12-03T20:50:13.785Z,75.34
2022-12-03T20:53:24.746Z,75.41
2022-12-03T20:56:31.845Z,75.50
2022-12-03T20:59:34.850Z,75.43
2022-12-03T21:02:38.250Z,75.39
2022-12-03T21:05:43.825Z,75.53
2022-12-03T21:08:47.504Z,75.43
2022-12-03T21:11:50.589Z,75.61
2022-12-03T21:14:53.576Z,75.54
2022-12-03T21:17:56.556Z,75.53
2022-12-03T21:21:01.968Z,75.52
2022-12-03T21:24:05.376Z,75.57
2022-12-03T21:27:08.515Z,75.59
2022-12-03T21:30:11.873Z,75.77
2022-12-03T21:33:15.055Z,75.66
2022-12-03T21:36:18.168Z,75.73
2022-12-03T21:39:21.123Z,75.71
2022-12-03T21:42:35.573Z,75.76
2022-12-03T21:45:43.076Z,75.74
2022-12-03T21:48:48.466Z,75.77
2022-12-03T21:51:51.626Z,75.72
2022-12-03T21:54:55.147Z,75.87
2022-12-03T21:57:58.420Z,75.80
2022-12-03T22:01:01.713Z,75.81
2022-12-03T22:04:04.867Z,75.93
2022-12-03T22:07:07.941Z,75.97
2022-12-03T22:10:11.823Z,75.87
2022-12-03T22:13:14.846Z,75.77
2022-12-03T22:16:20.210Z,75.86
2022-12-03T22:19:24.507Z,75.91
2022-12-03T22:22:27.434Z,76.07
2022-12-03T22:25:30.708Z,75.87
2022-12-03T22:28:35.267Z,75.88
2022-12-03T22:31:38.405Z,75.93
2022-12-03T22:34:41.740Z,76.03
2022-12-03T22:37:44.705Z,76.12
2022-12-03T22:40:47.724Z,76.13
2022-12-03T22:43:50.723Z,76.18
2022-12-03T22:46:53.775Z,76.16
2022-12-03T22:49:57.158Z,76.29
2022-12-03T22:53:00.235Z,76.22
2022-12-03T22:56:03.225Z,76.23
2022-12-03T22:59:06.854Z,76.12
2022-12-03T23:02:09.952Z,76.43
2022-12-03T23:05:12.970Z,76.23
2022-12-03T23:08:19.592Z,76.29
2022-12-03T23:11:23.388Z,76.32
2022-12-03T23:14:26.343Z,76.35
2022-12-03T23:17:29.335Z,76.30
2022-12-03T23:20:32.333Z,76.35
2022-12-03T23:23:35.341Z,76.36
2022-12-03T23:26:39.484Z,76.36
2022-12-03T23:29:42.454Z,76.40
2022-12-03T23:32:45.582Z,76.29
2022-12-03T23:35:48.607Z,76.48
2022-12-03T23:38:51.654Z,76.39
2022-12-03T23:41:54.666Z,76.42
2022-12-03T23:44:57.657Z,76.44
2022-12-03T23:48:01.158Z,76.55
2022-12-03T23:51:10.322Z,76.46
2022-12-03T23:54:13.368Z,76.39
2022-12-03T23:57:16.332Z,76.43
